Time;durP1;ratioP1;P1;durP2;ratioP2;P2;SDS_P1;SDS_P2;PMS_P1;PMS_P2;Temp;Humidity;BMP_temperature;BMP_pressure;BME280_temperature;BME280_humidity;BME280_pressure;Samples;Min_cycle;Max_cycle;Signal;HPM_P1;HPM_P2
2022/12/27 00:00:05;;;;;;;3.95;2.42;;;;;;;;;;5105636;27;20031;-78
2022/12/27 00:02:31;;;;;;;5.20;2.60;;;;;;;;;;5108217;27;20771;-78
2022/12/27 00:04:58;;;;;;;3.15;2.30;;;;;;;;;;5109571;27;20020;-77
2022/12/27 00:07:24;;;;;;;3.22;2.50;;;;;;;;;;5113844;27;20494;-79
2022/12/27 00:09:50;;;;;;;4.28;2.40;;;;;;;;;;5117065;27;20031;-77
2022/12/27 00:12:16;;;;;;;4.38;2.53;;;;;;;;;;5104458;27;20032;-77
2022/12/27 00:14:42;;;;;;;5.70;2.90;;;;;;;;;;5111683;27;20092;-77
2022/12/27 00:17:08;;;;;;;3.15;2.38;;;;;;;;;;5105668;27;20024;-77
2022/12/27 00:19:35;;;;;;;5.25;2.67;;;;;;;;;;5109617;27;20028;-77
2022/12/27 00:22:01;;;;;;;3.63;2.50;;;;;;;;;;5107839;27;20028;-77
2022/12/27 00:24:27;;;;;;;5.13;2.25;;;;;;;;;;5106108;27;20035;-78
2022/12/27 00:26:53;;;;;;;3.20;2.28;;;;;;;;;;5124438;27;20035;-77
2022/12/27 00:29:19;;;;;;;3.42;2.40;;;;;;;;;;5105204;27;20031;-77
2022/12/27 00:31:45;;;;;;;2.92;2.10;;;;;;;;;;5113120;27;20024;-77
2022/12/27 00:34:12;;;;;;;3.03;2.10;;;;;;;;;;5104013;27;20036;-77
2022/12/27 00:36:38;;;;;;;3.72;2.30;;;;;;;;;;5119266;27;20030;-77
2022/12/27 00:39:04;;;;;;;3.75;2.50;;;;;;;;;;5111521;27;20036;-78
2022/12/27 00:41:30;;;;;;;4.20;2.88;;;;;;;;;;5110059;27;20059;-77
2022/12/27 00:43:56;;;;;;;3.50;2.50;;;;;;;;;;5113130;27;20033;-78
2022/12/27 00:46:22;;;;;;;4.82;2.65;;;;;;;;;;5112838;27;20031;-77
2022/12/27 00:48:49;;;;;;;2.85;2.10;;;;;;;;;;5114166;27;20042;-77
2022/12/27 00:51:19;;;;;;;3.55;2.40;;;;;;;;;;5109382;27;20457;-77
2022/12/27 00:53:46;;;;;;;4.30;2.60;;;;;;;;;;5119044;27;20728;-77
2022/12/27 00:56:17;;;;;;;3.28;2.38;;;;;;;;;;5110745;27;20030;-77
2022/12/27 00:58:43;;;;;;;3.50;2.72;;;;;;;;;;5113297;27;20073;-78
2022/12/27 01:01:17;;;;;;;3.13;2.47;;;;;;;;;;5109949;27;20032;-78
2022/12/27 01:03:43;;;;;;;4.00;2.60;;;;;;;;;;5118547;27;20020;-77
2022/12/27 01:06:12;;;;;;;3.08;2.40;;;;;;;;;;5116334;27;20026;-78
2022/12/27 01:08:39;;;;;;;5.82;2.40;;;;;;;;;;5115887;27;20038;-77
2022/12/27 01:11:06;;;;;;;3.40;2.40;;;;;;;;;;5125382;27;20023;-78
2022/12/27 01:13:32;;;;;;;3.63;2.33;;;;;;;;;;5113267;27;20077;-77
2022/12/27 01:15:58;;;;;;;4.53;3.00;;;;;;;;;;5122254;27;20055;-78
2022/12/27 01:18:25;;;;;;;3.78;2.75;;;;;;;;;;5113155;27;20478;-78
2022/12/27 01:20:51;;;;;;;3.63;2.67;;;;;;;;;;5126771;27;20071;-78
2022/12/27 01:23:17;;;;;;;3.88;2.75;;;;;;;;;;5119197;27;20043;-77
2022/12/27 01:25:43;;;;;;;3.13;2.50;;;;;;;;;;5114537;27;20032;-77
2022/12/27 01:28:09;;;;;;;5.78;2.78;;;;;;;;;;5123166;27;20115;-78
2022/12/27 01:30:35;;;;;;;3.83;2.60;;;;;;;;;;5114050;27;20475;-77
2022/12/27 01:33:02;;;;;;;3.00;2.30;;;;;;;;;;5121822;27;20030;-77
2022/12/27 01:35:28;;;;;;;3.55;2.58;;;;;;;;;;5118291;27;20075;-77
2022/12/27 01:37:54;;;;;;;3.40;2.63;;;;;;;;;;5122742;27;20031;-77
2022/12/27 01:40:20;;;;;;;4.13;2.50;;;;;;;;;;5114106;27;20413;-77
2022/12/27 01:42:53;;;;;;;3.88;2.50;;;;;;;;;;5115627;27;20016;-79
2022/12/27 01:45:21;;;;;;;3.92;2.88;;;;;;;;;;5118732;27;20023;-77
2022/12/27 01:47:47;;;;;;;5.72;3.00;;;;;;;;;;5118920;27;20031;-77
2022/12/27 01:50:16;;;;;;;3.45;2.35;;;;;;;;;;5126573;27;20098;-77
2022/12/27 01:52:45;;;;;;;3.25;2.60;;;;;;;;;;5115492;27;20055;-77
2022/12/27 01:55:31;;;;;;;3.40;2.65;;;;;;;;;;5120944;27;20491;-77
2022/12/27 01:58:03;;;;;;;5.32;3.38;;;;;;;;;;5105793;27;20043;-77
2022/12/27 02:00:29;;;;;;;4.63;3.53;;;;;;;;;;5114905;27;20019;-77
2022/12/27 02:02:55;;;;;;;4.50;3.60;;;;;;;;;;5117535;27;20039;-77
2022/12/27 02:05:23;;;;;;;8.85;5.82;;;;;;;;;;5112665;27;20080;-77
2022/12/27 02:07:57;;;;;;;11.52;7.28;;;;;;;;;;5118588;27;20035;-77
2022/12/27 02:10:24;;;;;;;7.53;4.90;;;;;;;;;;5115574;27;20019;-77
2022/12/27 02:12:50;;;;;;;4.88;3.63;;;;;;;;;;5127019;27;20027;-77
2022/12/27 02:15:16;;;;;;;4.32;2.92;;;;;;;;;;5120053;27;20024;-78
2022/12/27 02:17:42;;;;;;;5.97;3.03;;;;;;;;;;5113478;27;20045;-77
2022/12/27 02:20:09;;;;;;;4.18;3.35;;;;;;;;;;5123253;27;20016;-77
2022/12/27 02:25:38;;;;;;;8.30;5.18;;;;;;;;;;5116265;27;20034;-77
2022/12/27 02:28:25;;;;;;;6.45;5.50;;;;;;;;;;5112968;27;20045;-77
2022/12/27 02:30:55;;;;;;;4.70;3.60;;;;;;;;;;5117756;27;20031;-77
2022/12/27 02:33:24;;;;;;;4.35;3.13;;;;;;;;;;5119701;27;20025;-77
2022/12/27 02:35:55;;;;;;;5.50;4.47;;;;;;;;;;5118646;27;20024;-77
2022/12/27 02:38:21;;;;;;;6.63;4.82;;;;;;;;;;5114818;27;20425;-77
2022/12/27 02:55:19;;;;;;;5.03;3.45;;;;;;;;;;5113582;27;20103;-77
2022/12/27 02:57:55;;;;;;;4.82;3.20;;;;;;;;;;5118262;27;20031;-77
2022/12/27 03:03:23;;;;;;;5.65;3.40;;;;;;;;;;5117682;27;20113;-77
2022/12/27 03:09:04;;;;;;;4.15;3.38;;;;;;;;;;5120710;27;20047;-77
2022/12/27 03:17:33;;;;;;;3.75;2.60;;;;;;;;;;5113951;27;20410;-77
2022/12/27 03:25:35;;;;;;;15.55;8.18;;;;;;;;;;5109971;27;20382;-77
2022/12/27 03:33:39;;;;;;;7.43;3.17;;;;;;;;;;5116919;27;20568;-77
2022/12/27 03:39:17;;;;;;;4.10;2.70;;;;;;;;;;5112974;27;20113;-77
2022/12/27 03:44:32;;;;;;;6.03;2.70;;;;;;;;;;5095812;27;20058;-77
2022/12/27 03:46:59;;;;;;;3.75;2.40;;;;;;;;;;5107625;27;20526;-77
2022/12/27 03:49:41;;;;;;;5.40;2.60;;;;;;;;;;5120463;27;20041;-77
2022/12/27 03:52:07;;;;;;;5.38;2.85;;;;;;;;;;5115095;27;20806;-77
2022/12/27 03:54:35;;;;;;;6.40;3.35;;;;;;;;;;5118081;27;20042;-77
2022/12/27 03:57:03;;;;;;;4.10;2.40;;;;;;;;;;5110429;27;20027;-77
2022/12/27 03:59:30;;;;;;;5.20;2.83;;;;;;;;;;5110264;27;20031;-77
2022/12/27 04:01:56;;;;;;;4.10;2.42;;;;;;;;;;5111342;27;20038;-77
2022/12/27 04:04:23;;;;;;;2.72;2.08;;;;;;;;;;5123805;27;20065;-77
2022/12/27 04:06:49;;;;;;;3.53;2.40;;;;;;;;;;5109043;27;20084;-77
2022/12/27 04:36:42;;;;;;;3.47;2.10;;;;;;;;;;5108874;27;20058;-76
2022/12/27 04:39:09;;;;;;;4.30;2.83;;;;;;;;;;5121314;27;20503;-76
2022/12/27 04:55:20;;;;;;;3.83;2.70;;;;;;;;;;5109038;27;20094;-77
2022/12/27 04:57:46;;;;;;;4.45;2.92;;;;;;;;;;5107792;27;20130;-76
2022/12/27 05:02:58;;;;;;;4.22;2.60;;;;;;;;;;5107366;27;20035;-76
2022/12/27 05:05:24;;;;;;;4.13;2.58;;;;;;;;;;5109671;27;20087;-77
2022/12/27 05:16:04;;;;;;;3.58;2.83;;;;;;;;;;5108117;27;20093;-76
2022/12/27 05:18:30;;;;;;;4.05;2.90;;;;;;;;;;5117471;27;20427;-77
2022/12/27 05:21:01;;;;;;;3.88;2.90;;;;;;;;;;5106055;27;20550;-77
2022/12/27 05:26:17;;;;;;;4.78;2.60;;;;;;;;;;5108817;27;20402;-77
2022/12/27 05:28:43;;;;;;;3.10;2.47;;;;;;;;;;5107220;27;20043;-76
2022/12/27 05:31:10;;;;;;;3.67;2.33;;;;;;;;;;5110555;27;20454;-77
2022/12/27 05:33:36;;;;;;;6.07;2.40;;;;;;;;;;5119953;27;20031;-77
2022/12/27 05:36:02;;;;;;;3.88;2.20;;;;;;;;;;5114889;27;20110;-77
2022/12/27 05:38:28;;;;;;;3.83;2.60;;;;;;;;;;5110278;27;20058;-77
2022/12/27 05:41:01;;;;;;;5.50;2.80;;;;;;;;;;5111542;27;20042;-77
2022/12/27 05:43:27;;;;;;;3.17;2.60;;;;;;;;;;5111534;27;20025;-77
2022/12/27 05:45:54;;;;;;;4.82;2.72;;;;;;;;;;5113780;27;20031;-77
2022/12/27 05:48:20;;;;;;;3.53;2.60;;;;;;;;;;5113877;27;20065;-77
2022/12/27 05:50:47;;;;;;;3.90;2.83;;;;;;;;;;5115938;27;20027;-76
2022/12/27 05:53:13;;;;;;;3.58;2.35;;;;;;;;;;5113810;27;20034;-76
2022/12/27 05:55:39;;;;;;;3.22;2.33;;;;;;;;;;5109450;27;20031;-76
2022/12/27 05:58:05;;;;;;;3.78;2.50;;;;;;;;;;5109977;27;20560;-77
2022/12/27 06:00:31;;;;;;;3.60;2.15;;;;;;;;;;5110817;27;20052;-76
2022/12/27 06:02:58;;;;;;;5.28;2.30;;;;;;;;;;5121292;27;20027;-77
2022/12/27 06:05:24;;;;;;;3.17;2.45;;;;;;;;;;5111944;27;20125;-77
2022/12/27 06:07:50;;;;;;;3.17;2.25;;;;;;;;;;5107073;27;20051;-77
2022/12/27 06:10:16;;;;;;;3.90;2.05;;;;;;;;;;5115388;27;20019;-78
2022/12/27 06:12:42;;;;;;;4.68;2.60;;;;;;;;;;5109793;27;20054;-78
2022/12/27 06:15:10;;;;;;;3.58;2.50;;;;;;;;;;5109775;27;20099;-78
2022/12/27 06:17:36;;;;;;;4.03;2.80;;;;;;;;;;5111899;27;20495;-79
2022/12/27 06:20:02;;;;;;;4.00;2.80;;;;;;;;;;5120122;27;20467;-78
2022/12/27 06:22:29;;;;;;;4.20;3.10;;;;;;;;;;5113103;27;20027;-78
2022/12/27 06:24:55;;;;;;;3.42;3.00;;;;;;;;;;5110317;27;20042;-78
2022/12/27 06:27:21;;;;;;;4.63;3.45;;;;;;;;;;5109279;27;20032;-78
2022/12/27 06:29:47;;;;;;;4.15;2.55;;;;;;;;;;5108038;27;20046;-78
2022/12/27 06:32:16;;;;;;;3.88;3.17;;;;;;;;;;5112042;27;20467;-78
2022/12/27 06:34:42;;;;;;;3.92;2.80;;;;;;;;;;5109672;27;20023;-78
2022/12/27 06:37:08;;;;;;;3.38;2.75;;;;;;;;;;5119753;27;20048;-78
2022/12/27 06:39:34;;;;;;;5.82;2.88;;;;;;;;;;5111035;27;20123;-78
2022/12/27 06:42:01;;;;;;;4.35;2.97;;;;;;;;;;5110766;27;20530;-78
2022/12/27 06:44:27;;;;;;;3.28;2.85;;;;;;;;;;5111345;27;20057;-78
2022/12/27 06:46:53;;;;;;;4.57;3.72;;;;;;;;;;5114919;27;20078;-78
2022/12/27 06:49:19;;;;;;;7.03;3.65;;;;;;;;;;5119075;27;20088;-78
2022/12/27 06:51:47;;;;;;;4.47;3.42;;;;;;;;;;5119284;27;20027;-79
2022/12/27 06:54:13;;;;;;;5.03;3.63;;;;;;;;;;5111410;27;20032;-79
2022/12/27 06:56:39;;;;;;;4.72;3.17;;;;;;;;;;5110604;27;20121;-78
2022/12/27 06:59:06;;;;;;;5.43;3.17;;;;;;;;;;5106865;27;20613;-78
2022/12/27 07:01:32;;;;;;;4.68;3.80;;;;;;;;;;5110710;27;20032;-79
2022/12/27 07:03:59;;;;;;;6.85;3.58;;;;;;;;;;5109820;27;20449;-78
2022/12/27 07:06:26;;;;;;;7.85;4.03;;;;;;;;;;5111519;27;20030;-78
2022/12/27 07:08:52;;;;;;;4.93;3.63;;;;;;;;;;5112229;27;20031;-78
2022/12/27 07:11:19;;;;;;;7.40;3.70;;;;;;;;;;5112887;27;20115;-81
2022/12/27 07:13:47;;;;;;;6.65;4.95;;;;;;;;;;5112386;27;21043;-78
2022/12/27 07:16:15;;;;;;;10.98;4.70;;;;;;;;;;5106276;27;20114;-78
2022/12/27 07:18:42;;;;;;;5.70;4.20;;;;;;;;;;5116545;27;20019;-78
2022/12/27 07:21:09;;;;;;;6.20;4.55;;;;;;;;;;5113645;27;20018;-78
2022/12/27 07:23:36;;;;;;;5.22;4.47;;;;;;;;;;5113620;27;20626;-78
2022/12/27 07:26:03;;;;;;;5.68;4.18;;;;;;;;;;5112848;27;20039;-78
2022/12/27 07:28:29;;;;;;;6.28;4.80;;;;;;;;;;5109655;27;20039;-78
2022/12/27 07:30:55;;;;;;;6.30;4.75;;;;;;;;;;5114207;27;20066;-77
2022/12/27 07:33:21;;;;;;;9.40;5.28;;;;;;;;;;5119861;27;20039;-78
2022/12/27 07:35:48;;;;;;;8.27;5.18;;;;;;;;;;5110183;27;20031;-78
2022/12/27 07:38:14;;;;;;;7.20;5.47;;;;;;;;;;5108706;27;20070;-78
2022/12/27 07:40:40;;;;;;;7.32;5.72;;;;;;;;;;5111745;27;20819;-78
2022/12/27 07:43:06;;;;;;;7.03;5.13;;;;;;;;;;5106707;27;20028;-78
2022/12/27 07:45:32;;;;;;;6.13;5.32;;;;;;;;;;5108890;27;20039;-79
2022/12/27 07:47:58;;;;;;;6.90;4.90;;;;;;;;;;5109075;27;20039;-78
2022/12/27 07:50:24;;;;;;;7.22;5.63;;;;;;;;;;5120005;27;20024;-78
2022/12/27 07:52:50;;;;;;;10.00;6.43;;;;;;;;;;5107161;27;20036;-78
2022/12/27 07:55:16;;;;;;;8.52;6.22;;;;;;;;;;5106237;27;20030;-78
2022/12/27 07:57:43;;;;;;;10.73;5.80;;;;;;;;;;5110471;27;20030;-79
2022/12/27 08:00:09;;;;;;;8.43;5.20;;;;;;;;;;5104942;27;20030;-78
2022/12/27 08:02:35;;;;;;;9.27;5.22;;;;;;;;;;5110954;27;20036;-77
2022/12/27 08:05:02;;;;;;;9.27;5.65;;;;;;;;;;5112048;27;20035;-79
2022/12/27 08:07:28;;;;;;;9.35;5.47;;;;;;;;;;5114714;27;20039;-79
2022/12/27 08:09:54;;;;;;;7.45;5.35;;;;;;;;;;5110925;27;20038;-78
2022/12/27 08:12:20;;;;;;;9.23;5.50;;;;;;;;;;5110038;27;20381;-79
2022/12/27 08:14:46;;;;;;;7.13;5.10;;;;;;;;;;5110694;27;20059;-79
2022/12/27 08:17:19;;;;;;;9.45;5.97;;;;;;;;;;5106662;27;20020;-78
2022/12/27 08:19:46;;;;;;;10.95;7.32;;;;;;;;;;5111633;27;20728;-78
2022/12/27 08:22:12;;;;;;;18.25;8.43;;;;;;;;;;5110252;27;20057;-73
2022/12/27 08:24:40;;;;;;;12.73;7.90;;;;;;;;;;5108548;27;20019;-73
2022/12/27 08:27:06;;;;;;;9.73;6.28;;;;;;;;;;5108416;27;20492;-73
2022/12/27 08:29:33;;;;;;;13.48;6.95;;;;;;;;;;5112528;27;20506;-73
2022/12/27 08:31:59;;;;;;;16.73;7.63;;;;;;;;;;5108106;27;20031;-72
2022/12/27 08:34:25;;;;;;;18.52;9.60;;;;;;;;;;5119551;27;20046;-71
2022/12/27 08:36:51;;;;;;;13.30;7.82;;;;;;;;;;5115173;27;20103;-78
2022/12/27 08:39:18;;;;;;;13.25;7.30;;;;;;;;;;5117378;27;20019;-76
2022/12/27 08:41:44;;;;;;;13.02;6.55;;;;;;;;;;5115327;27;20032;-76
2022/12/27 08:44:10;;;;;;;10.98;6.65;;;;;;;;;;5107650;27;20491;-75
2022/12/27 08:46:37;;;;;;;10.98;6.13;;;;;;;;;;5120035;27;20032;-75
2022/12/27 08:49:03;;;;;;;9.43;6.80;;;;;;;;;;5123923;27;20094;-76
2022/12/27 08:51:30;;;;;;;13.38;9.18;;;;;;;;;;5117138;27;20016;-76
2022/12/27 08:53:56;;;;;;;11.25;7.82;;;;;;;;;;5112303;27;20088;-79
2022/12/27 08:56:22;;;;;;;13.85;7.90;;;;;;;;;;5106845;27;20491;-75
2022/12/27 08:58:49;;;;;;;12.82;8.45;;;;;;;;;;5138443;27;20106;-76
2022/12/27 09:01:15;;;;;;;12.23;8.75;;;;;;;;;;5111691;27;20032;-75
2022/12/27 09:03:41;;;;;;;13.90;8.32;;;;;;;;;;5121516;27;20098;-75
2022/12/27 09:06:07;;;;;;;15.20;9.38;;;;;;;;;;5116782;27;20023;-75
2022/12/27 09:08:34;;;;;;;15.60;8.45;;;;;;;;;;5117813;27;20725;-75
2022/12/27 09:11:11;;;;;;;11.77;7.97;;;;;;;;;;5116809;27;20037;-75
2022/12/27 09:13:37;;;;;;;12.02;9.05;;;;;;;;;;5109975;27;20879;-75
2022/12/27 09:16:10;;;;;;;11.32;9.35;;;;;;;;;;5118059;27;20436;-75
2022/12/27 09:18:40;;;;;;;11.98;9.05;;;;;;;;;;5111840;27;20047;-76
2022/12/27 09:21:07;;;;;;;11.88;9.43;;;;;;;;;;5126439;27;20027;-75
2022/12/27 09:23:33;;;;;;;12.27;9.50;;;;;;;;;;5111779;27;20479;-75
2022/12/27 09:26:03;;;;;;;16.10;12.73;;;;;;;;;;5114763;27;20031;-75
2022/12/27 09:28:29;;;;;;;17.85;12.98;;;;;;;;;;5113487;27;20039;-75
2022/12/27 09:30:56;;;;;;;14.38;12.63;;;;;;;;;;5122660;27;20087;-75
2022/12/27 09:33:22;;;;;;;13.95;11.13;;;;;;;;;;5114765;27;20096;-75
2022/12/27 09:35:48;;;;;;;11.13;9.95;;;;;;;;;;5111500;27;20402;-75
2022/12/27 09:38:14;;;;;;;13.45;10.88;;;;;;;;;;5114883;27;20112;-75
2022/12/27 09:40:50;;;;;;;12.68;11.32;;;;;;;;;;5119773;27;20026;-75
2022/12/27 09:43:18;;;;;;;13.88;11.82;;;;;;;;;;5118410;27;20575;-75
2022/12/27 09:45:46;;;;;;;17.30;13.52;;;;;;;;;;5112696;27;20570;-76
2022/12/27 09:48:15;;;;;;;14.98;11.65;;;;;;;;;;5117482;27;20401;-75
2022/12/27 09:50:55;;;;;;;14.68;12.20;;;;;;;;;;5112324;27;20080;-75
2022/12/27 09:53:23;;;;;;;13.25;10.85;;;;;;;;;;5113894;27;20515;-75
2022/12/27 09:55:51;;;;;;;16.33;11.30;;;;;;;;;;5113891;27;20024;-75
2022/12/27 09:58:36;;;;;;;14.15;11.82;;;;;;;;;;5112091;27;20425;-75
2022/12/27 10:01:11;;;;;;;16.00;10.77;;;;;;;;;;5115966;27;20643;-75
2022/12/27 10:03:38;;;;;;;12.82;11.45;;;;;;;;;;5115089;27;20463;-75
2022/12/27 10:06:22;;;;;;;15.60;12.95;;;;;;;;;;5121993;27;20084;-75
2022/12/27 10:08:48;;;;;;;15.30;13.70;;;;;;;;;;5121315;27;20031;-75
2022/12/27 10:11:35;;;;;;;19.55;15.02;;;;;;;;;;5119114;27;20023;-75
2022/12/27 10:14:25;;;;;;;16.20;13.38;;;;;;;;;;5118322;27;20027;-75
2022/12/27 10:16:59;;;;;;;15.20;11.50;;;;;;;;;;5080361;27;20411;-75
2022/12/27 10:19:38;;;;;;;14.93;10.55;;;;;;;;;;5117383;27;20103;-75
2022/12/27 10:22:16;;;;;;;10.35;8.45;;;;;;;;;;5117424;27;20478;-74
2022/12/27 10:24:50;;;;;;;11.82;8.50;;;;;;;;;;5115148;27;20023;-75
2022/12/27 10:27:24;;;;;;;11.65;8.10;;;;;;;;;;5116821;27;20490;-75
2022/12/27 10:29:57;;;;;;;12.57;8.40;;;;;;;;;;5117870;27;20537;-75
2022/12/27 10:32:24;;;;;;;8.18;6.40;;;;;;;;;;5112120;27;20027;-75
2022/12/27 10:34:58;;;;;;;8.20;6.35;;;;;;;;;;5113219;27;20076;-75
2022/12/27 10:37:26;;;;;;;10.25;6.13;;;;;;;;;;5114408;27;20036;-75
2022/12/27 10:39:53;;;;;;;9.18;5.45;;;;;;;;;;5117073;27;20019;-76
2022/12/27 10:42:19;;;;;;;10.38;5.75;;;;;;;;;;5115157;27;20027;-75
2022/12/27 10:44:45;;;;;;;10.18;6.10;;;;;;;;;;5110923;27;20027;-75
2022/12/27 10:47:11;;;;;;;7.55;5.70;;;;;;;;;;5113620;27;20043;-75
2022/12/27 10:49:38;;;;;;;8.85;5.60;;;;;;;;;;5120274;27;20035;-75
2022/12/27 10:52:13;;;;;;;7.57;5.53;;;;;;;;;;5115129;27;20379;-75
2022/12/27 10:54:50;;;;;;;8.57;5.50;;;;;;;;;;5111248;27;20019;-75
2022/12/27 10:57:18;;;;;;;9.38;5.40;;;;;;;;;;5116148;27;20019;-75
2022/12/27 10:59:44;;;;;;;9.95;6.20;;;;;;;;;;5109056;27;20473;-76
2022/12/27 11:02:18;;;;;;;7.13;5.90;;;;;;;;;;5113428;27;20059;-75
2022/12/27 11:05:10;;;;;;;8.30;6.22;;;;;;;;;;5114166;27;20030;-75
2022/12/27 11:07:36;;;;;;;9.48;6.00;;;;;;;;;;5115817;27;20051;-75
2022/12/27 11:10:07;;;;;;;6.07;5.10;;;;;;;;;;5114138;27;20089;-75
2022/12/27 11:12:35;;;;;;;8.20;5.53;;;;;;;;;;5114387;27;20015;-75
2022/12/27 11:15:10;;;;;;;8.60;5.65;;;;;;;;;;5113994;27;20047;-75
2022/12/27 11:17:44;;;;;;;10.57;6.10;;;;;;;;;;5118297;27;20019;-75
2022/12/27 11:20:30;;;;;;;8.38;5.93;;;;;;;;;;5115220;27;20019;-75
2022/12/27 11:22:56;;;;;;;7.20;5.93;;;;;;;;;;5114586;27;20027;-75
2022/12/27 11:25:23;;;;;;;8.38;6.10;;;;;;;;;;5117616;27;20011;-75
2022/12/27 11:27:52;;;;;;;10.50;6.03;;;;;;;;;;5108041;27;20027;-75
2022/12/27 11:30:32;;;;;;;8.95;5.95;;;;;;;;;;5112191;27;20489;-75
2022/12/27 11:33:03;;;;;;;10.40;7.38;;;;;;;;;;5111893;27;20024;-74
2022/12/27 11:35:30;;;;;;;6.47;5.45;;;;;;;;;;5124432;27;20094;-74
2022/12/27 11:37:56;;;;;;;8.07;6.25;;;;;;;;;;5111116;27;20592;-75
2022/12/27 11:40:34;;;;;;;9.25;6.72;;;;;;;;;;5111414;27;20463;-75
2022/12/27 11:43:12;;;;;;;8.65;6.65;;;;;;;;;;5118756;27;20015;-75
2022/12/27 11:45:41;;;;;;;9.73;6.35;;;;;;;;;;5118492;27;20046;-75
2022/12/27 11:48:16;;;;;;;8.93;6.75;;;;;;;;;;5114138;27;20019;-74
2022/12/27 11:50:54;;;;;;;7.93;5.95;;;;;;;;;;5110736;27;20020;-75
2022/12/27 11:53:32;;;;;;;9.27;5.82;;;;;;;;;;5115468;27;20027;-75
2022/12/27 11:56:04;;;;;;;10.35;6.50;;;;;;;;;;5107741;27;20379;-75
2022/12/27 11:58:30;;;;;;;9.77;6.35;;;;;;;;;;5112991;27;20015;-75
2022/12/27 12:00:57;;;;;;;7.53;5.53;;;;;;;;;;5118334;27;20038;-74
2022/12/27 12:03:26;;;;;;;8.25;5.15;;;;;;;;;;5121438;27;20023;-75
2022/12/27 12:06:05;;;;;;;8.15;5.43;;;;;;;;;;5120575;27;20891;-75
2022/12/27 12:08:41;;;;;;;7.07;5.95;;;;;;;;;;5112883;27;20058;-75
2022/12/27 12:11:07;;;;;;;7.32;5.35;;;;;;;;;;5111709;27;20020;-75
2022/12/27 12:13:42;;;;;;;10.02;5.93;;;;;;;;;;5112193;27;20027;-75
2022/12/27 12:16:27;;;;;;;8.52;5.47;;;;;;;;;;5112407;27;20026;-75
2022/12/27 12:18:58;;;;;;;9.30;5.60;;;;;;;;;;5116129;27;20042;-75
2022/12/27 12:21:26;;;;;;;6.78;5.43;;;;;;;;;;5106657;27;20038;-75
2022/12/27 12:23:58;;;;;;;9.30;5.55;;;;;;;;;;5111736;27;20049;-75
2022/12/27 12:26:25;;;;;;;9.70;6.05;;;;;;;;;;5111855;27;20065;-75
2022/12/27 12:29:10;;;;;;;10.43;5.43;;;;;;;;;;5110128;27;20410;-75
2022/12/27 12:31:36;;;;;;;7.53;5.07;;;;;;;;;;5120746;27;20015;-75
2022/12/27 12:34:09;;;;;;;8.10;6.05;;;;;;;;;;5110047;27;20043;-75
2022/12/27 12:36:38;;;;;;;6.55;5.20;;;;;;;;;;5116386;27;20018;-75
2022/12/27 12:39:08;;;;;;;5.75;4.88;;;;;;;;;;5113627;27;20024;-74
2022/12/27 12:41:34;;;;;;;7.15;5.07;;;;;;;;;;5117151;27;20008;-75
2022/12/27 12:44:09;;;;;;;8.40;5.20;;;;;;;;;;5112314;27;20031;-75
2022/12/27 12:46:54;;;;;;;5.88;4.85;;;;;;;;;;5115266;27;20063;-74
2022/12/27 12:49:33;;;;;;;7.97;5.47;;;;;;;;;;5121800;27;20085;-75
2022/12/27 12:52:14;;;;;;;6.25;5.18;;;;;;;;;;5107461;27;20609;-75
2022/12/27 12:54:57;;;;;;;9.95;5.15;;;;;;;;;;5117019;27;20028;-74
2022/12/27 12:57:39;;;;;;;6.32;5.10;;;;;;;;;;5111567;27;20104;-75
2022/12/27 13:00:08;;;;;;;8.82;5.40;;;;;;;;;;5120491;27;20388;-75
2022/12/27 13:02:49;;;;;;;6.43;5.15;;;;;;;;;;5114395;27;20043;-74
2022/12/27 13:05:15;;;;;;;10.18;5.57;;;;;;;;;;5112013;27;20028;-75
2022/12/27 13:08:00;;;;;;;7.35;5.70;;;;;;;;;;5112135;27;20023;-74
2022/12/27 13:10:28;;;;;;;7.93;5.25;;;;;;;;;;5108618;27;20096;-75
2022/12/27 13:13:04;;;;;;;7.78;4.90;;;;;;;;;;5113521;27;20047;-74
2022/12/27 13:15:51;;;;;;;7.38;5.50;;;;;;;;;;5118544;27;20387;-74
2022/12/27 13:18:23;;;;;;;8.77;5.45;;;;;;;;;;5117335;27;20023;-75
2022/12/27 13:20:55;;;;;;;8.02;5.50;;;;;;;;;;5106692;27;20472;-75
2022/12/27 13:23:28;;;;;;;11.18;5.72;;;;;;;;;;5111167;27;20406;-74
2022/12/27 13:26:12;;;;;;;9.82;5.88;;;;;;;;;;5109792;27;20038;-71
2022/12/27 13:28:58;;;;;;;8.23;5.53;;;;;;;;;;5111516;27;20066;-73
2022/12/27 13:31:34;;;;;;;8.77;5.40;;;;;;;;;;5109725;27;20065;-75
2022/12/27 13:34:09;;;;;;;10.23;6.32;;;;;;;;;;5119668;27;20132;-75
2022/12/27 13:36:39;;;;;;;9.40;6.05;;;;;;;;;;5109084;27;20090;-75
2022/12/27 13:39:22;;;;;;;10.18;5.88;;;;;;;;;;5110115;27;20020;-75
2022/12/27 13:42:07;;;;;;;8.80;5.97;;;;;;;;;;5107857;27;20030;-75
2022/12/27 13:44:52;;;;;;;7.88;5.75;;;;;;;;;;5119792;27;20079;-75
2022/12/27 13:47:32;;;;;;;9.50;5.90;;;;;;;;;;5110328;27;20057;-75
2022/12/27 13:49:59;;;;;;;9.30;7.03;;;;;;;;;;5111031;27;20035;-75
2022/12/27 13:52:37;;;;;;;11.43;7.47;;;;;;;;;;5118188;27;20095;-75
2022/12/27 13:55:22;;;;;;;11.68;7.97;;;;;;;;;;5114909;27;20027;-75
2022/12/27 13:57:51;;;;;;;9.27;7.07;;;;;;;;;;5115977;27;20527;-75
2022/12/27 14:00:19;;;;;;;15.65;8.60;;;;;;;;;;5109155;27;20016;-75
2022/12/27 14:02:55;;;;;;;10.95;8.30;;;;;;;;;;5123635;27;20018;-75
2022/12/27 14:05:21;;;;;;;10.50;8.00;;;;;;;;;;5111716;27;20534;-76
2022/12/27 14:07:56;;;;;;;11.82;6.82;;;;;;;;;;5119572;27;20027;-75
2022/12/27 14:10:35;;;;;;;9.00;7.05;;;;;;;;;;5113546;27;20126;-75
2022/12/27 14:13:08;;;;;;;11.20;8.40;;;;;;;;;;5113570;27;20390;-75
2022/12/27 14:15:37;;;;;;;12.18;7.93;;;;;;;;;;5114340;27;20045;-74
2022/12/27 14:18:13;;;;;;;17.38;9.15;;;;;;;;;;5113309;27;20028;-75
2022/12/27 14:20:52;;;;;;;13.27;9.15;;;;;;;;;;5115079;27;20059;-75
2022/12/27 14:23:18;;;;;;;11.93;8.48;;;;;;;;;;5118590;27;20467;-75
2022/12/27 14:26:00;;;;;;;13.43;8.82;;;;;;;;;;5118846;27;20062;-75
2022/12/27 14:28:41;;;;;;;10.50;7.72;;;;;;;;;;5111352;27;20035;-74
2022/12/27 14:31:07;;;;;;;13.40;7.13;;;;;;;;;;5114861;27;20031;-74
2022/12/27 14:33:51;;;;;;;10.25;7.00;;;;;;;;;;5113996;27;20028;-75
2022/12/27 14:36:36;;;;;;;12.52;6.95;;;;;;;;;;5114357;27;20076;-74
2022/12/27 14:39:21;;;;;;;10.07;6.82;;;;;;;;;;5111881;27;20055;-75
2022/12/27 14:41:59;;;;;;;9.80;6.07;;;;;;;;;;5118084;27;20028;-74
2022/12/27 14:44:44;;;;;;;10.13;6.88;;;;;;;;;;5112386;27;20085;-74
2022/12/27 14:47:29;;;;;;;10.10;6.35;;;;;;;;;;5125559;27;20027;-74
2022/12/27 14:50:14;;;;;;;9.07;6.85;;;;;;;;;;5111408;27;20043;-74
2022/12/27 14:52:46;;;;;;;9.93;7.30;;;;;;;;;;5115833;27;20022;-74
2022/12/27 14:55:15;;;;;;;10.38;6.80;;;;;;;;;;5113423;27;20031;-74
2022/12/27 14:57:44;;;;;;;13.23;7.72;;;;;;;;;;5110743;27;20024;-74
2022/12/27 15:00:21;;;;;;;10.82;6.65;;;;;;;;;;5113051;27;20019;-74
2022/12/27 15:02:47;;;;;;;9.27;6.43;;;;;;;;;;5114506;27;20027;-75
2022/12/27 15:05:22;;;;;;;14.43;7.07;;;;;;;;;;5111127;27;20012;-74
2022/12/27 15:08:19;;;;;;;13.73;6.80;;;;;;;;;;5109961;27;20027;-74
2022/12/27 15:11:03;;;;;;;11.73;7.18;;;;;;;;;;5117752;27;20039;-74
2022/12/27 15:13:43;;;;;;;9.68;6.95;;;;;;;;;;5110188;27;20383;-74
2022/12/27 15:16:09;;;;;;;8.15;6.32;;;;;;;;;;5114467;27;20077;-74
2022/12/27 15:18:35;;;;;;;11.50;7.32;;;;;;;;;;5112589;27;20348;-75
2022/12/27 15:21:01;;;;;;;10.07;6.97;;;;;;;;;;5113485;27;20019;-74
2022/12/27 15:23:27;;;;;;;10.60;6.85;;;;;;;;;;5114462;27;20020;-76
2022/12/27 15:26:01;;;;;;;10.52;7.35;;;;;;;;;;5115975;27;20027;-75
2022/12/27 15:28:53;;;;;;;17.25;7.07;;;;;;;;;;5124397;27;21807;-74
2022/12/27 15:31:38;;;;;;;9.15;6.47;;;;;;;;;;5117441;27;20031;-74
2022/12/27 15:34:07;;;;;;;14.30;6.93;;;;;;;;;;5113186;27;20101;-74
2022/12/27 15:36:39;;;;;;;8.38;6.13;;;;;;;;;;5108850;27;20024;-75
2022/12/27 15:39:07;;;;;;;11.80;7.35;;;;;;;;;;5117518;27;20105;-72
2022/12/27 15:41:36;;;;;;;10.38;7.13;;;;;;;;;;5111098;27;20023;-74
2022/12/27 15:44:03;;;;;;;21.70;6.82;;;;;;;;;;5113382;27;20113;-74
2022/12/27 15:46:38;;;;;;;11.20;7.13;;;;;;;;;;5111428;27;20020;-74
2022/12/27 15:49:04;;;;;;;9.60;7.07;;;;;;;;;;5122073;27;20605;-74
2022/12/27 15:51:40;;;;;;;13.70;7.35;;;;;;;;;;5120084;27;20038;-72
2022/12/27 15:54:09;;;;;;;10.90;7.70;;;;;;;;;;5111275;27;20037;-74
2022/12/27 15:56:55;;;;;;;10.50;7.68;;;;;;;;;;5112345;27;20023;-73
2022/12/27 15:59:33;;;;;;;16.80;8.27;;;;;;;;;;5120214;27;20019;-72
2022/12/27 16:02:18;;;;;;;10.88;8.38;;;;;;;;;;5112249;27;20533;-73
2022/12/27 16:04:44;;;;;;;12.52;8.18;;;;;;;;;;5113629;27;20390;-74
2022/12/27 16:07:29;;;;;;;13.13;8.48;;;;;;;;;;5114319;27;20015;-73
2022/12/27 16:09:55;;;;;;;13.48;8.80;;;;;;;;;;5112571;27;20039;-73
2022/12/27 16:12:36;;;;;;;13.38;8.90;;;;;;;;;;5110054;27;20034;-73
2022/12/27 16:15:21;;;;;;;13.90;9.43;;;;;;;;;;5113480;27;20020;-73
2022/12/27 16:17:54;;;;;;;13.90;9.23;;;;;;;;;;5119933;27;20039;-74
2022/12/27 16:20:22;;;;;;;13.43;9.02;;;;;;;;;;5111825;27;20854;-75
2022/12/27 16:22:48;;;;;;;11.43;7.75;;;;;;;;;;5113594;27;20019;-72
2022/12/27 16:25:27;;;;;;;9.43;6.45;;;;;;;;;;5117669;27;20511;-73
2022/12/27 16:27:58;;;;;;;7.65;5.85;;;;;;;;;;5119861;27;20031;-73
2022/12/27 16:30:34;;;;;;;9.15;6.53;;;;;;;;;;5110855;27;20016;-73
2022/12/27 16:33:02;;;;;;;13.93;6.47;;;;;;;;;;5117719;27;20091;-73
2022/12/27 16:35:29;;;;;;;10.75;5.68;;;;;;;;;;5120964;27;20023;-73
2022/12/27 16:37:55;;;;;;;9.77;5.40;;;;;;;;;;5111977;27;20043;-72